sensor_id;sensor_type;location;lat;lon;timestamp;P1;durP1;ratioP1;P2;durP2;ratioP2
9489;SDS011;4783;42.734;23.288;2023-07-02T06:01:17;17.48;;;10.88;;
9489;SDS011;4783;42.734;23.288;2023-07-02T06:03:42;12.88;;;9.38;;
9489;SDS011;4783;42.734;23.288;2023-07-02T06:06:10;16.90;;;10.48;;
9489;SDS011;4783;42.734;23.288;2023-07-02T06:21:17;12.55;;;8.95;;
9489;SDS011;4783;42.734;23.288;2023-07-02T06:32:54;15.93;;;9.70;;
9489;SDS011;4783;42.734;23.288;2023-07-02T06:41:52;14.55;;;10.07;;
9489;SDS011;4783;42.734;23.288;2023-07-02T06:44:17;17.70;;;11.18;;
9489;SDS011;4783;42.734;23.288;2023-07-02T07:00:18;14.95;;;10.35;;
9489;SDS011;4783;42.734;23.288;2023-07-02T07:02:43;40.67;;;17.65;;
9489;SDS011;4783;42.734;23.288;2023-07-02T07:19:37;24.42;;;13.10;;
9489;SDS011;4783;42.734;23.288;2023-07-02T07:30:07;16.30;;;9.88;;
9489;SDS011;4783;42.734;23.288;2023-07-02T07:47:22;13.90;;;10.85;;
9489;SDS011;4783;42.734;23.288;2023-07-02T07:49:47;23.80;;;10.02;;
9489;SDS011;4783;42.734;23.288;2023-07-02T08:05:19;19.17;;;10.13;;
9489;SDS011;4783;42.734;23.288;2023-07-02T08:20:59;21.08;;;10.15;;
9489;SDS011;4783;42.734;23.288;2023-07-02T08:34:05;15.82;;;10.05;;
9489;SDS011;4783;42.734;23.288;2023-07-02T08:36:30;18.40;;;10.65;;
9489;SDS011;4783;42.734;23.288;2023-07-02T08:46:49;11.38;;;9.02;;
9489;SDS011;4783;42.734;23.288;2023-07-02T08:49:16;13.95;;;9.25;;
9489;SDS011;4783;42.734;23.288;2023-07-02T08:57:23;17.73;;;8.32;;
9489;SDS011;4783;42.734;23.288;2023-07-02T08:59:48;18.27;;;8.77;;
9489;SDS011;4783;42.734;23.288;2023-07-02T09:02:16;12.57;;;8.93;;
9489;SDS011;4783;42.734;23.288;2023-07-02T09:04:41;12.35;;;8.40;;
9489;SDS011;4783;42.734;23.288;2023-07-02T09:07:07;11.73;;;8.52;;
9489;SDS011;4783;42.734;23.288;2023-07-02T09:09:33;12.10;;;7.70;;
9489;SDS011;4783;42.734;23.288;2023-07-02T09:12:08;10.45;;;7.63;;
9489;SDS011;4783;42.734;23.288;2023-07-02T09:14:34;12.48;;;7.65;;
9489;SDS011;4783;42.734;23.288;2023-07-02T09:17:03;11.25;;;7.95;;
9489;SDS011;4783;42.734;23.288;2023-07-02T09:19:28;26.85;;;19.90;;
9489;SDS011;4783;42.734;23.288;2023-07-02T09:21:56;14.82;;;7.40;;
9489;SDS011;4783;42.734;23.288;2023-07-02T09:24:22;15.55;;;7.60;;
9489;SDS011;4783;42.734;23.288;2023-07-02T09:26:51;12.05;;;7.65;;
9489;SDS011;4783;42.734;23.288;2023-07-02T09:29:19;12.65;;;6.97;;
9489;SDS011;4783;42.734;23.288;2023-07-02T09:31:46;15.43;;;6.97;;
9489;SDS011;4783;42.734;23.288;2023-07-02T09:34:12;8.20;;;7.05;;
9489;SDS011;4783;42.734;23.288;2023-07-02T09:36:37;11.60;;;7.43;;
9489;SDS011;4783;42.734;23.288;2023-07-02T09:39:06;14.23;;;7.82;;
9489;SDS011;4783;42.734;23.288;2023-07-02T09:41:32;12.40;;;7.50;;
9489;SDS011;4783;42.734;23.288;2023-07-02T09:43:57;13.02;;;7.05;;
9489;SDS011;4783;42.734;23.288;2023-07-02T09:46:22;11.07;;;7.22;;
9489;SDS011;4783;42.734;23.288;2023-07-02T09:48:48;13.70;;;7.85;;
9489;SDS011;4783;42.734;23.288;2023-07-02T09:51:13;12.00;;;7.72;;
9489;SDS011;4783;42.734;23.288;2023-07-02T09:53:38;14.20;;;7.47;;
9489;SDS011;4783;42.734;23.288;2023-07-02T09:56:04;10.20;;;8.07;;
9489;SDS011;4783;42.734;23.288;2023-07-02T09:58:29;10.38;;;7.20;;
9489;SDS011;4783;42.734;23.288;2023-07-02T10:00:56;12.95;;;8.23;;
9489;SDS011;4783;42.734;23.288;2023-07-02T10:03:32;9.02;;;6.82;;
9489;SDS011;4783;42.734;23.288;2023-07-02T10:06:04;9.40;;;6.68;;
9489;SDS011;4783;42.734;23.288;2023-07-02T10:08:29;12.00;;;7.32;;
9489;SDS011;4783;42.734;23.288;2023-07-02T10:11:05;10.25;;;7.45;;
9489;SDS011;4783;42.734;23.288;2023-07-02T10:13:31;11.27;;;6.68;;
9489;SDS011;4783;42.734;23.288;2023-07-02T10:16:02;9.98;;;7.10;;
9489;SDS011;4783;42.734;23.288;2023-07-02T10:18:28;10.75;;;7.53;;
9489;SDS011;4783;42.734;23.288;2023-07-02T10:20:53;12.68;;;7.60;;
9489;SDS011;4783;42.734;23.288;2023-07-02T10:23:18;7.30;;;6.40;;
9489;SDS011;4783;42.734;23.288;2023-07-02T10:25:43;10.45;;;6.97;;
9489;SDS011;4783;42.734;23.288;2023-07-02T10:28:16;11.43;;;6.22;;
9489;SDS011;4783;42.734;23.288;2023-07-02T10:30:42;6.78;;;6.05;;
9489;SDS011;4783;42.734;23.288;2023-07-02T10:33:08;10.02;;;7.47;;
9489;SDS011;4783;42.734;23.288;2023-07-02T10:35:37;9.45;;;6.35;;
9489;SDS011;4783;42.734;23.288;2023-07-02T10:38:02;9.70;;;5.85;;
9489;SDS011;4783;42.734;23.288;2023-07-02T10:40:27;6.00;;;5.07;;
9489;SDS011;4783;42.734;23.288;2023-07-02T10:42:54;6.93;;;5.72;;
9489;SDS011;4783;42.734;23.288;2023-07-02T10:45:19;7.03;;;4.80;;
9489;SDS011;4783;42.734;23.288;2023-07-02T10:47:45;5.75;;;4.90;;
9489;SDS011;4783;42.734;23.288;2023-07-02T10:50:29;8.85;;;6.72;;
9489;SDS011;4783;42.734;23.288;2023-07-02T10:52:55;8.38;;;4.97;;
9489;SDS011;4783;42.734;23.288;2023-07-02T10:55:21;6.40;;;4.40;;
9489;SDS011;4783;42.734;23.288;2023-07-02T10:57:47;6.68;;;4.68;;
9489;SDS011;4783;42.734;23.288;2023-07-02T11:00:12;6.68;;;4.45;;
9489;SDS011;4783;42.734;23.288;2023-07-02T11:02:38;7.40;;;4.50;;
9489;SDS011;4783;42.734;23.288;2023-07-02T11:05:04;6.13;;;4.45;;
9489;SDS011;4783;42.734;23.288;2023-07-02T11:07:31;5.47;;;4.45;;
9489;SDS011;4783;42.734;23.288;2023-07-02T11:09:56;11.77;;;4.85;;
9489;SDS011;4783;42.734;23.288;2023-07-02T11:12:28;5.43;;;4.57;;
9489;SDS011;4783;42.734;23.288;2023-07-02T11:14:53;6.45;;;4.57;;
9489;SDS011;4783;42.734;23.288;2023-07-02T11:17:24;9.30;;;4.60;;
9489;SDS011;4783;42.734;23.288;2023-07-02T11:19:50;7.97;;;5.28;;
9489;SDS011;4783;42.734;23.288;2023-07-02T11:22:15;6.63;;;4.63;;
9489;SDS011;4783;42.734;23.288;2023-07-02T11:24:41;9.35;;;4.78;;
9489;SDS011;4783;42.734;23.288;2023-07-02T11:27:06;9.50;;;5.95;;
9489;SDS011;4783;42.734;23.288;2023-07-02T11:29:32;9.27;;;5.53;;
9489;SDS011;4783;42.734;23.288;2023-07-02T11:32:10;12.18;;;5.88;;
9489;SDS011;4783;42.734;23.288;2023-07-02T11:34:36;8.65;;;5.68;;
9489;SDS011;4783;42.734;23.288;2023-07-02T11:37:01;7.55;;;5.63;;
9489;SDS011;4783;42.734;23.288;2023-07-02T11:39:27;10.10;;;6.18;;
9489;SDS011;4783;42.734;23.288;2023-07-02T11:41:53;7.28;;;5.72;;
9489;SDS011;4783;42.734;23.288;2023-07-02T11:44:18;8.48;;;6.30;;
9489;SDS011;4783;42.734;23.288;2023-07-02T11:46:43;7.20;;;5.95;;
9489;SDS011;4783;42.734;23.288;2023-07-02T11:49:09;6.88;;;5.50;;
9489;SDS011;4783;42.734;23.288;2023-07-02T11:51:38;7.38;;;5.32;;
9489;SDS011;4783;42.734;23.288;2023-07-02T11:54:04;6.38;;;5.15;;
9489;SDS011;4783;42.734;23.288;2023-07-02T11:56:29;9.63;;;4.78;;
9489;SDS011;4783;42.734;23.288;2023-07-02T11:58:54;7.00;;;4.95;;
9489;SDS011;4783;42.734;23.288;2023-07-02T12:01:20;7.18;;;5.15;;
9489;SDS011;4783;42.734;23.288;2023-07-02T12:03:45;7.25;;;5.20;;
9489;SDS011;4783;42.734;23.288;2023-07-02T12:06:10;7.00;;;5.18;;
9489;SDS011;4783;42.734;23.288;2023-07-02T12:08:36;5.38;;;4.47;;
9489;SDS011;4783;42.734;23.288;2023-07-02T12:11:01;6.00;;;4.63;;
9489;SDS011;4783;42.734;23.288;2023-07-02T12:13:26;5.32;;;4.43;;
9489;SDS011;4783;42.734;23.288;2023-07-02T12:15:51;6.22;;;4.70;;
9489;SDS011;4783;42.734;23.288;2023-07-02T12:18:17;6.05;;;5.13;;
9489;SDS011;4783;42.734;23.288;2023-07-02T12:20:42;7.80;;;5.28;;
9489;SDS011;4783;42.734;23.288;2023-07-02T12:23:07;6.63;;;5.55;;
9489;SDS011;4783;42.734;23.288;2023-07-02T12:25:33;7.25;;;4.70;;
9489;SDS011;4783;42.734;23.288;2023-07-02T12:27:58;7.65;;;5.82;;
9489;SDS011;4783;42.734;23.288;2023-07-02T12:30:23;7.65;;;5.38;;
9489;SDS011;4783;42.734;23.288;2023-07-02T12:32:49;8.02;;;5.50;;
9489;SDS011;4783;42.734;23.288;2023-07-02T12:35:14;7.63;;;5.57;;
9489;SDS011;4783;42.734;23.288;2023-07-02T12:37:43;8.45;;;5.60;;
9489;SDS011;4783;42.734;23.288;2023-07-02T12:40:09;9.35;;;5.57;;
9489;SDS011;4783;42.734;23.288;2023-07-02T12:42:34;6.10;;;5.22;;
9489;SDS011;4783;42.734;23.288;2023-07-02T12:45:00;6.00;;;5.28;;
9489;SDS011;4783;42.734;23.288;2023-07-02T12:47:25;7.13;;;5.82;;
9489;SDS011;4783;42.734;23.288;2023-07-02T12:49:51;9.60;;;5.68;;
9489;SDS011;4783;42.734;23.288;2023-07-02T12:52:16;7.05;;;5.47;;
9489;SDS011;4783;42.734;23.288;2023-07-02T12:54:41;6.90;;;5.80;;
9489;SDS011;4783;42.734;23.288;2023-07-02T12:57:06;7.80;;;6.20;;
9489;SDS011;4783;42.734;23.288;2023-07-02T12:59:31;7.53;;;5.97;;
9489;SDS011;4783;42.734;23.288;2023-07-02T13:01:57;9.63;;;5.67;;
9489;SDS011;4783;42.734;23.288;2023-07-02T13:04:22;6.47;;;5.30;;
9489;SDS011;4783;42.734;23.288;2023-07-02T13:06:47;7.25;;;5.80;;
9489;SDS011;4783;42.734;23.288;2023-07-02T13:09:12;6.60;;;5.63;;
9489;SDS011;4783;42.734;23.288;2023-07-02T13:11:38;7.97;;;5.72;;
9489;SDS011;4783;42.734;23.288;2023-07-02T13:14:03;6.38;;;5.68;;
9489;SDS011;4783;42.734;23.288;2023-07-02T13:16:28;6.85;;;6.15;;
9489;SDS011;4783;42.734;23.288;2023-07-02T13:18:54;6.85;;;6.07;;
9489;SDS011;4783;42.734;23.288;2023-07-02T14:46:55;8.70;;;7.30;;
9489;SDS011;4783;42.734;23.288;2023-07-02T14:49:20;10.18;;;7.25;;
9489;SDS011;4783;42.734;23.288;2023-07-02T14:51:46;8.35;;;6.60;;
9489;SDS011;4783;42.734;23.288;2023-07-02T14:54:11;8.75;;;6.88;;
9489;SDS011;4783;42.734;23.288;2023-07-02T14:56:36;8.65;;;6.47;;
9489;SDS011;4783;42.734;23.288;2023-07-02T14:59:02;9.77;;;6.95;;
9489;SDS011;4783;42.734;23.288;2023-07-02T15:01:28;9.52;;;6.88;;
9489;SDS011;4783;42.734;23.288;2023-07-02T15:03:53;8.18;;;6.50;;
9489;SDS011;4783;42.734;23.288;2023-07-02T15:06:18;8.75;;;6.65;;
9489;SDS011;4783;42.734;23.288;2023-07-02T15:08:44;8.30;;;6.82;;
9489;SDS011;4783;42.734;23.288;2023-07-02T15:11:11;10.02;;;9.00;;
9489;SDS011;4783;42.734;23.288;2023-07-02T15:13:36;8.15;;;6.53;;
9489;SDS011;4783;42.734;23.288;2023-07-02T15:16:02;8.60;;;5.95;;
9489;SDS011;4783;42.734;23.288;2023-07-02T15:18:28;12.18;;;6.40;;
9489;SDS011;4783;42.734;23.288;2023-07-02T15:20:53;9.80;;;6.00;;
9489;SDS011;4783;42.734;23.288;2023-07-02T15:23:19;9.07;;;6.93;;
9489;SDS011;4783;42.734;23.288;2023-07-02T15:43:20;10.35;;;7.93;;
9489;SDS011;4783;42.734;23.288;2023-07-02T15:45:45;11.60;;;8.13;;
9489;SDS011;4783;42.734;23.288;2023-07-02T15:48:11;9.88;;;6.85;;
9489;SDS011;4783;42.734;23.288;2023-07-02T15:50:36;8.93;;;7.63;;
9489;SDS011;4783;42.734;23.288;2023-07-02T15:53:02;8.67;;;7.07;;
9489;SDS011;4783;42.734;23.288;2023-07-02T15:55:28;7.75;;;5.75;;
9489;SDS011;4783;42.734;23.288;2023-07-02T15:57:53;15.75;;;6.40;;
9489;SDS011;4783;42.734;23.288;2023-07-02T16:00:19;9.18;;;6.45;;
9489;SDS011;4783;42.734;23.288;2023-07-02T16:02:44;6.72;;;6.03;;
9489;SDS011;4783;42.734;23.288;2023-07-02T16:05:10;9.13;;;6.10;;
9489;SDS011;4783;42.734;23.288;2023-07-02T16:07:36;9.98;;;6.70;;
9489;SDS011;4783;42.734;23.288;2023-07-02T16:10:02;9.93;;;6.70;;
9489;SDS011;4783;42.734;23.288;2023-07-02T16:18:50;9.38;;;7.30;;
9489;SDS011;4783;42.734;23.288;2023-07-02T16:21:15;10.67;;;6.63;;
9489;SDS011;4783;42.734;23.288;2023-07-02T16:23:40;8.35;;;6.70;;
9489;SDS011;4783;42.734;23.288;2023-07-02T16:26:06;7.90;;;6.65;;
9489;SDS011;4783;42.734;23.288;2023-07-02T16:28:33;8.32;;;6.63;;
9489;SDS011;4783;42.734;23.288;2023-07-02T16:30:58;7.72;;;6.63;;
9489;SDS011;4783;42.734;23.288;2023-07-02T16:33:23;7.82;;;6.68;;
9489;SDS011;4783;42.734;23.288;2023-07-02T16:35:49;8.52;;;6.85;;
9489;SDS011;4783;42.734;23.288;2023-07-02T16:38:14;9.40;;;6.97;;
9489;SDS011;4783;42.734;23.288;2023-07-02T16:40:40;8.30;;;6.75;;
9489;SDS011;4783;42.734;23.288;2023-07-02T16:43:06;11.00;;;7.28;;
9489;SDS011;4783;42.734;23.288;2023-07-02T16:45:32;9.10;;;6.78;;
9489;SDS011;4783;42.734;23.288;2023-07-02T16:47:58;7.70;;;6.25;;
9489;SDS011;4783;42.734;23.288;2023-07-02T16:50:23;8.95;;;6.53;;
9489;SDS011;4783;42.734;23.288;2023-07-02T16:52:49;7.75;;;5.93;;
9489;SDS011;4783;42.734;23.288;2023-07-02T16:55:14;8.30;;;6.10;;
9489;SDS011;4783;42.734;23.288;2023-07-02T16:57:39;12.18;;;6.10;;
9489;SDS011;4783;42.734;23.288;2023-07-02T17:00:05;7.70;;;6.50;;
9489;SDS011;4783;42.734;23.288;2023-07-02T17:02:32;9.27;;;6.35;;
9489;SDS011;4783;42.734;23.288;2023-07-02T17:04:57;9.73;;;6.15;;
9489;SDS011;4783;42.734;23.288;2023-07-02T17:07:22;6.28;;;5.30;;
9489;SDS011;4783;42.734;23.288;2023-07-02T17:09:48;8.10;;;6.15;;
